KFYE

Details ICAO KFYE
Name FAYETTE COUNTY
Region United States
Timezone America/Chicago (UTC-6.0)
Plans Departing 1
Arriving 0
Stats Elevation 436 ft / 133 m (AMSL)
Location 35.207706° -89.394458°
Runways 1
Magnetic Variation 1.783° W
Sunrise 2017-12-12 12:58:18 UTC / 2017-12-12 06:58:18 Local
Sunset 2017-12-12 22:47:24 UTC / 2017-12-12 16:47:24 Local
Advertisement - Login to hide

Runways

ID Width Length Bearing (true) Bearing (mag) Surface Threshold Offset Overrun Length
01 75 ft / 23 m 5,013 ft / 1,528 m 7.77° 9.55° Asphalt 0 ft / 0 m 0 ft / 0 m
19 75 ft / 23 m 5,013 ft / 1,528 m 187.77° 189.55° Asphalt 0 ft / 0 m 0 ft / 0 m

Map

Weather


0- 5 10 15 20 25 30 35+ Temperature / ° C

Clouds and Precipitation
Forecast for 2017-12-12 18:00 UTC. Updated an hour ago

Ground ~20,000 ft ~40,000 ft Winds

METAR

KFYE 121815Z AUTO 31010G17KT 10SM CLR 08/M04 A3015 RMK A01

TAF

Not found

Frequencies

Recorded 119.87 MHz AWOS 3
Approach 125.80 MHz MEMPHIS APP
Unicom 122.90 MHz CTAF
Departure 124.15 MHz MEMPHIS DEP
Warning: Do not use this data for real-world aviation or navigation. No guarantee of current accuracy is given.